WetterOnline ( https://www.wetteronline.de )

Wetter aktuell Werl

Aktuelles Wetter: Werl (84m)

6-stündlich | Neueste Meldungen
Ortszeit Temperatur Wetter
Sa, 19.06. 2:00 24.7° C wolkig
Fr, 18.06. 20:00 28.2° C leicht bewölkt
Fr, 18.06. 14:00 29.7° C bedeckt
Fr, 18.06. 8:00 22.4° C leicht bewölkt
Fr, 18.06. 2:00 22.5° C leicht bewölkt
Do, 17.06. 20:00 31.5° C fast wolkenlos
Do, 17.06. 14:00 33.3° C wolkenlos
Do, 17.06. 8:00 25.3° C wolkenlos
Ortszeit Temperatur Wetter
Sa, 19.06. 4:30 20.3° C wolkenlos
Sa, 19.06. 4:20 20.3° C wolkenlos
Sa, 19.06. 4:10 21.8° C wolkenlos
Sa, 19.06. 4:00 20.6° C leicht bewölkt
Sa, 19.06. 3:50 20.6° C leicht bewölkt
Sa, 19.06. 3:40 20.6° C leicht bewölkt
Sa, 19.06. 3:30 20.7° C fast wolkenlos
Sa, 19.06. 3:00 22.8° C leicht bewölkt
Sa, 19.06. 2:30 22.2° C wolkig
Sa, 19.06. 2:00 24.7° C wolkig
Sa, 19.06. 1:30 22.9° C wolkig
Sa, 19.06. 1:00 23.3° C wolkig
Ortszeit Relative Feuchte Sichtweite
Sa, 19.06. 2:00 62% 40 km
Fr, 18.06. 20:00 61% 50 km
Fr, 18.06. 14:00 52% 40 km
Fr, 18.06. 8:00 77% 29 km
Fr, 18.06. 2:00 78% 35 km
Do, 17.06. 20:00 42% 40 km
Do, 17.06. 14:00 31% 45 km
Do, 17.06. 8:00 58% 45 km
Ortszeit Relative Feuchte Sichtweite
Sa, 19.06. 4:30 81% 40 km
Sa, 19.06. 4:20 81% -
Sa, 19.06. 4:10 74% -
Sa, 19.06. 4:00 80% 40 km
Sa, 19.06. 3:50 80% -
Sa, 19.06. 3:40 80% -
Sa, 19.06. 3:30 80% -
Sa, 19.06. 3:00 70% 40 km
Sa, 19.06. 2:30 72% 40 km
Sa, 19.06. 2:00 62% 40 km
Sa, 19.06. 1:30 69% 40 km
Sa, 19.06. 1:00 67% 40 km
Ortszeit Niederschlagsmenge Niederschlagsart
Sa, 19.06. 2:00 0.0 l/m2 in 6 Std. -
Fr, 18.06. 20:00 0.0 l/m2 in 12 Std. -
Fr, 18.06. 14:00 0.0 l/m2 in 6 Std. -
Fr, 18.06. 8:00 0.0 l/m2 in 12 Std. -
Fr, 18.06. 2:00 0.0 l/m2 in 6 Std. -
Do, 17.06. 20:00 0.0 l/m2 in 12 Std. -
Do, 17.06. 14:00 0.0 l/m2 in 6 Std. -
Do, 17.06. 8:00 0.0 l/m2 in 12 Std. -
Ortszeit Niederschlagsmenge Niederschlagsart
Sa, 19.06. 4:30 0.0 l/m2 in 1 Std. -
Sa, 19.06. 4:20 keine Meldung -
Sa, 19.06. 4:10 keine Meldung -
Sa, 19.06. 4:00 0.0 l/m2 in 1 Std. -
Sa, 19.06. 3:50 keine Meldung -
Sa, 19.06. 3:40 keine Meldung -
Sa, 19.06. 3:30 0.0 l/m2 in 1 Std. -
Sa, 19.06. 3:00 0.0 l/m2 in 1 Std. -
Sa, 19.06. 2:30 0.0 l/m2 in 1 Std. -
Sa, 19.06. 2:00 0.0 l/m2 in 1 Std. -
Sa, 19.06. 1:30 0.0 l/m2 in 1 Std. -
Sa, 19.06. 1:00 0.0 l/m2 in 1 Std. -
Ortszeit Stärke Spitze Richtung
km/h Bft. km/h Grad Sektor
Sa, 19.06. 2:00 14 3 25 250° W
Fr, 18.06. 20:00 9 2 28 90° O
Fr, 18.06. 14:00 7 2 22 310° NW
Fr, 18.06. 8:00 7 2 11 100° O
Fr, 18.06. 2:00 6 1 19 320° NW
Do, 17.06. 20:00 11 2 32 190° S
Do, 17.06. 14:00 17 3 28 180° S
Do, 17.06. 8:00 4 1 14 120° SO
Ortszeit Stärke Spitze Richtung
km/h Bft. km/h Grad Sektor
Sa, 19.06. 4:30 9 2 24 240° SW
Sa, 19.06. 4:20 9 2 - 240° SW
Sa, 19.06. 4:10 13 3 - 250° W
Sa, 19.06. 4:00 9 2 13 230° SW
Sa, 19.06. 3:50 9 2 - 230° SW
Sa, 19.06. 3:40 7 2 - 230° SW
Sa, 19.06. 3:30 9 2 13 220° SW
Sa, 19.06. 3:00 11 2 22 250° W
Sa, 19.06. 2:30 11 2 22 230° SW
Sa, 19.06. 2:00 14 3 25 250° W
Sa, 19.06. 1:30 7 2 14 230° SW
Sa, 19.06. 1:00 9 2 11 230° SW
Ortszeit Untergrenze Bedeckung Gattung
total tief tief mittel hoch
Sa, 19.06. 2:00 10500 m 8/8 0/8 - - -
Fr, 18.06. 20:00 2400 m 5/8 1/8 - - -
Fr, 18.06. 14:00 3600 m 8/8 8/8 - - -
Fr, 18.06. 8:00 1800 m 3/8 3/8 - - -
Fr, 18.06. 2:00 10500 m 5/8 0/8 - - -
Do, 17.06. 20:00 2400 m 1/8 1/8 - - -
Do, 17.06. 14:00 - 0/8 0/8 - - -
Do, 17.06. 8:00 - 0/8 0/8 - - -
Ortszeit Bedeckungsgrad in Achtel und Wolkenuntergrenze
Sa, 19.06. 4:30 keine Wolken
Sa, 19.06. 4:20 keine Wolken
Sa, 19.06. 4:10 keine Wolken
Sa, 19.06. 4:00 3(9000m)
Sa, 19.06. 3:50 3(9000m)
Sa, 19.06. 3:40 4(9000m)
Sa, 19.06. 3:30 2(10500m)
Sa, 19.06. 3:00 3(10500m)
Sa, 19.06. 2:30 8(10500m)
Sa, 19.06. 2:00 8(10500m) 8(10500m)
Sa, 19.06. 1:30 3(2700m) 8(10500m)
Sa, 19.06. 1:00 6(10500m) 8(10500m)
Ortszeit Luftdruck NN (hPa) Tendenz (hPa in 3 Std.)
Sa, 19.06. 2:00 1012 + 0,9
Fr, 18.06. 20:00 1011 - 0,8
Fr, 18.06. 14:00 1012 - 0,7
Fr, 18.06. 8:00 1013 + 0,3
Fr, 18.06. 2:00 1014 + 1,5
Do, 17.06. 20:00 1011 + 0,4
Do, 17.06. 14:00 1010 - 0,8
Do, 17.06. 8:00 1011 + 0,4
Ortszeit Luftdruck NN (hPa) Tendenz (hPa in 3 Std.)
Sa, 19.06. 4:30 1013 + 1,3
Sa, 19.06. 4:20 1013 keine Meldung
Sa, 19.06. 4:10 1013 keine Meldung
Sa, 19.06. 4:00 1013 + 1,2
Sa, 19.06. 3:50 1013 keine Meldung
Sa, 19.06. 3:40 1013 keine Meldung
Sa, 19.06. 3:30 1013 + 1,1
Sa, 19.06. 3:00 1013 + 1,0
Sa, 19.06. 2:30 1013 + 1,1
Sa, 19.06. 2:00 1012 + 0,9
Sa, 19.06. 1:30 1012 + 0,7
Sa, 19.06. 1:00 1012 + 1,0
Ortszeit Schneehöhe (cm)
Sa, 19.06. 2:00 -
Fr, 18.06. 20:00 -
Fr, 18.06. 14:00 -
Fr, 18.06. 8:00 -
Fr, 18.06. 2:00 -
Do, 17.06. 20:00 -
Do, 17.06. 14:00 -
Do, 17.06. 8:00 -
Ortszeit Schneehöhe (cm)
Sa, 19.06. 4:30 -
Sa, 19.06. 4:20 -
Sa, 19.06. 4:10 -
Sa, 19.06. 4:00 -
Sa, 19.06. 3:50 -
Sa, 19.06. 3:40 -
Sa, 19.06. 3:30 -
Sa, 19.06. 3:00 -
Sa, 19.06. 2:30 -
Sa, 19.06. 2:00 -
Sa, 19.06. 1:30 -
Sa, 19.06. 1:00 -
Link zu dieser Seite / Seite empfehlen

Das Wetter in ...